Batman Airport Batman TR
ICAO: LTCJ
IATA: BAL
Category: Medium
Scheduled Services: Yes

Elevation: 1822 ft
TransAlt. 7000 ft.

Airport Communications:
DIYARBAKIR APP:122.1
GND:121.95
TWR:122.1

LTCJ Zoom In..

If you have problems with the map follow the link
https://www.worldairports.se/pages/airport.php?
ICAO=LTCJ

Runways:

(A) RW 02 length 10000 ft width 148 ft
ILS 108.10 / hdg 21

(B) RW 20 length 10000 ft width 148 ft
---- / hdg 201

Location; LTCJ
Day. 22 / Time. 11.50 Zulu
* QNH: 1019
* Temperature: 23° c. 73.4°f.
* Wind from: VRB° Speed 02 kn.
Dewpoint: 13° c.
Visibility: 10 km or more.
Clouds: Few 3000 ft.
Clouds: Scattered 4000 ft.

LTCJ 221150Z VRB02KT 9999 FEW030TCU SCT040 23/13 Q1019


Wind From VRB°
Speed 02 kn.

 
 
jpsmedia.com for Web Design worldairports.se 2018   terms of use